Williamsfield, Ohio
Current Conditions -  °F | °C
As of 5:53 PM on Thursday 23 Oct 2014 (Local Time) from KHZY Reporting Station
Clear Clear  
Wind Chill: 53°   Ceiling: Unl
Heat Index: 53°   Visibility: 10mi
Dew Point: 45°   Wind: 5mph
Humidity: 74%   Direction: 310°NW
Pressure: 30.11"   Gusts: NA
Location:  41.53°N, 80.57°W
Report Text: KHZY 232153Z AUTO 31004KT 10SM CLR 12/07 A3011 RMK AO2 SLP198 T01170072
Loading
Personal Weather Stations






























Interactive Weather Map
Tropical Storm Tracking
New forecast layout! Learn more

10-Day Weather Forecast

Advertisements
Track Severe Weather on mobile